Timeline UpdatesTrip UpdatesNews PostsPvt PostsTravel TipsAdmin PostsConv PostsFollowed PostsChat RequestsBlog PostsPNR Posts

Disclaimer
Search
 
 
Wed Sep 17, 2014 11:00:39 ISTHomeTrainsΣChainsAtlasPNRForumGalleryNewsFAQTripsMembersLoginFeedback
No Recent News for this Train
Other Trains in the News **new
Latest...
.. .. ..
Fri Aug 02, 2013 (02:01PM)
⇐ Return Journey: Train# 51285

51286/Nagpur-Bhusaval Passenger (UnReserved)

Time-Table HAS CHANGED.
Sep 09 (2:25AM)
Change Departure Station:
Change Arrival Station:
Post a Train Travel TipPost a Train Travel Tip **new
Post a Comment/Question/Picture/VideoPost a Comment/Question/Picture/Video
Pantry/Catering
✕ NO Pantry Car
✕ NO Catering
RSA - Rake Sharing
Rake/Coach Composition
Loco
KYN WCAM 3
News    PNR    Forum    Time-Table    Availability    Fare Chart    Map    Arr/Dep History    Trips    Gallery    ΣChains    X/O    Timeline    
Travel Time: 10h 5m    45 halts    Distance: 392 km    Avg Speed: 38 km/hr
Type: Passenger
Zone: CR/Central
Departs @ 04:50
Platform# 7
SMTWTFS
Nagpur Junction/NGP 
Arrives @ 14:55
Platform# ???
SMTWTFS
Bhusaval Junction/BSL 

45 halts. 47 intermediate Stations between Nagpur Junction and Bhusaval Junction

Show ALL intermediate Stations  Show Old Time-Table

#CodeStation NameX/OArrivesAvgDepartsAvgHaltPFDay#KmSpeedElevZoneAddress
1NGP»Nagpur Junction (8)»  -04:50-710.020314mCRNagpur 440001, Maharashtra
2AJNIAjni (3)  04:59-05:00-1m--13.056310mCRNagpur 440003, Maharashtra
3KRIKhapri (2)  05:10-05:11-1m--112.356312mCRNagpur, Maharashtra
4GMGGumgaon (2)X  05:18-05:19-1m--118.958302mCRNagpur, Maharashtra
5BTBRButi Bori (4)  05:28-05:29-1m--127.659269mCRButi Bori, Maharashtra
6BOKBorkhedi  05:37-05:38-1m--135.469268mCRWardha, Maharashtra
7SNISindi (2)  05:48-05:49-1m--146.953258mCRWardha, Maharashtra
8TGPTuljapur (2)  05:58-05:59-1m--154.867259mCRTuljapur, Maharashtra
9SLORSeloo RoadX  06:08-06:09-1m--164.934256mCRMSH3, Maharashtra
10VADRWarud new halt!!X  06:23-06:24-1m--172.842261mCRSewagram, Maharashtra
11SEGMSewagram Junction (5)  06:29-06:30-1m--176.211279mCRWardha, Maharashtra
12WRWardha Junction (4)X  06:45-06:50-5m--178.952289mCRWardha 442001, Maharashtra
13DAEDahegaonX  07:06-07:07-1m--192.760275mCRMumbai Hwy, Maharashtra
14KAOTKaotha  07:16-07:17-1m--1101.750283mCRPulgaon, Maharashtra
15PLOPulgaon Junction (3)X  07:25-07:26-1m21108.458273mCRPulgaon, Maharashtra
16TLNTalniX  07:36-07:37-1m--1118.162277mCRPulgaon, Maharashtra
17DMNDhamangaon (2)X  07:47-07:48-1m--1128.461300mCRDhamangaon, Maharashtra
18DIPDiporeX  07:58-07:59-1m--1138.656322mCRState Highway 243, Maharashtra
19CNDChandur (2)X  08:06-08:07-1m--1145.156331mCRAmravati Distt, Maharashtra
20MLRMalkhed  08:21-08:22-1m--1158.148342mCRLalkhed, Maharashtra
21TMTTimtalaX  08:31-08:32-1m--1165.422350mCRAmravati, Maharashtra
22BDBadnera Junction (4)X  08:55-09:00-5m11173.864335mCRBadnera (Amravati) 444701, Maharashtra
23TKITakliX  09:08-09:09-1m--1182.366331mCRBadnera, Maharashtra
24KUMKuram  09:16-09:17-1m--1190.074308mCRAkola, Maharashtra
25MNDAMandura  09:23-09:24-1m--1197.460303mCRMurtizapur, Maharashtra
26MANAMana (2)X  09:30-09:31-1m21203.561294mCRMANA dist Akola, Maharashtra
27MZRMurtizapur (3)X  09:43-09:45-2m--1215.669303mCRMurtajapur, Maharashtra
28KTPKatepurna  09:54-09:55-1m--1226.075292mCRNational Highway 6, Maharashtra
29BGNBorgaon  10:02-10:03-1m--1234.893304mCRAkola, Maharashtra
30YADYeulkhed  10:10-10:11-1m--1245.633297mCRAkola, Maharashtra
31AKAkola Junction (7)X  10:20 10:24-10:25-5 1m11252.874284mCRAkola-444001, Maharashtra
32GAOGaigaon (2)  10:35-10:36-1m--1265.158301mCRAkola, Maharashtra
33PSParas (2)X  10:44-10:45-1m--1272.880282mCRAkola, Maharashtra
34NGZS K Nagjihari (2)  10:52-10:53-1m--1282.147274mCRDist. Akola, Maharashtra
35SEGShegaon (2)  11:04 11:03-11:05-1 2m--1290.053281mCRShegaon 444203, Maharashtra
36JMJalamb Junction (3)  11:29 11:19-11:30 11:20-1m--1302.482259mCRJalamb, Maharashtra
37NNNandura (2)O  11:39 11:29-11:40 11:30-1m--1314.649267mCRNandura, Maharashtra
38KJLKhumgaon Burti  11:49 11:39-11:50 11:40-1m--1322.042253mCRBuldhana, Maharashtra
39BISBiswa BridgeO  11:59 11:49-12:00 11:50-1m--1328.341252mCRBuldhana, Maharashtra
40WADOWadodaX  12:09 11:59-12:10 12:00-1m--1334.568252mCRNH 6, Maharashtra
41MKUMalkapur (2)  12:29 12:07-12:30 12:10-1 3m--1342.557252mCRMalkapur, Maharashtra
42KMKDKhamkhed  12:39 12:19-12:40 12:20-1m--1351.144252mCRMalkapur, Maharashtra
43KLHDKolhadiO  12:49 12:29-12:50 12:30-1m--1357.729278mCRMalkapur, Maharashtra
44BDWDBodwad (2)  12:59 12:39-13:00 12:40-1m--1362.138294mCRBodwad, Maharashtra
45ACGAchegaonX  13:14 12:59-13:15 13:00-1m--1374.026234mCRVarangaon, Maharashtra
46VNAVarangaon (3)O  13:44 13:13-13:45 13:15-1 2m--1379.78220mCRVarangaon, Maharashtra
47BSL•Bhusaval Junction (8)•  14:55----1392.4-208mCRBhusaval 425201, Maharashtra
Scroll to Top
Scroll to Bottom